createdAt,value
2023-03-06T00:04:36.568Z,7.78
2023-03-06T00:09:38.429Z,6.93
2023-03-06T00:14:40.122Z,6.68
2023-03-06T00:19:41.819Z,7.43
2023-03-06T00:24:44.859Z,7.15
2023-03-06T00:29:49.250Z,6.90
2023-03-06T00:34:52.786Z,7.20
2023-03-06T00:39:55.006Z,7.00
2023-03-06T00:44:56.921Z,7.80
2023-03-06T00:49:58.734Z,7.72
2023-03-06T00:55:00.764Z,6.72
2023-03-06T01:00:03.692Z,8.45
2023-03-06T01:05:06.656Z,7.57
2023-03-06T01:10:09.397Z,7.72
2023-03-06T01:15:12.972Z,7.03
2023-03-06T01:20:16.637Z,7.07
2023-03-06T01:25:18.536Z,6.85
2023-03-06T01:30:20.631Z,7.15
2023-03-06T01:35:22.512Z,6.90
2023-03-06T01:40:24.446Z,7.82
2023-03-06T01:45:26.308Z,6.93
2023-03-06T01:50:28.810Z,6.70
2023-03-06T01:55:35.114Z,7.97
2023-03-06T02:00:37.013Z,6.90
2023-03-06T02:05:40.892Z,8.52
2023-03-06T02:10:55.918Z,7.28
2023-03-06T02:15:57.671Z,7.20
2023-03-06T02:21:04.096Z,7.47
2023-03-06T02:26:07.996Z,7.32
2023-03-06T02:31:22.067Z,7.40
2023-03-06T02:36:23.878Z,7.78
2023-03-06T02:41:25.912Z,7.38
2023-03-06T02:46:27.919Z,7.38
2023-03-06T02:51:29.849Z,8.50
2023-03-06T02:56:32.044Z,7.30
2023-03-06T03:01:33.923Z,8.43
2023-03-06T03:06:35.696Z,7.82
2023-03-06T03:11:37.600Z,7.70
2023-03-06T03:16:39.388Z,7.55
2023-03-06T03:21:41.799Z,7.47
2023-03-06T03:26:43.526Z,7.75
2023-03-06T03:31:45.210Z,7.65
2023-03-06T03:36:46.982Z,7.80
2023-03-06T03:41:49.027Z,8.32
2023-03-06T03:46:51.008Z,7.35
2023-03-06T03:51:52.974Z,7.85
2023-03-06T03:56:54.602Z,7.93
2023-03-06T04:01:56.692Z,8.15
2023-03-06T04:06:58.379Z,8.60
2023-03-06T04:12:00.406Z,7.50
2023-03-06T04:17:02.362Z,8.32
2023-03-06T04:22:04.056Z,7.95
2023-03-06T04:27:06.132Z,8.00
2023-03-06T04:32:08.147Z,8.20
2023-03-06T04:37:22.273Z,8.07
2023-03-06T04:42:24.067Z,7.88
2023-03-06T04:47:26.063Z,7.57
2023-03-06T04:52:28.076Z,7.40
2023-03-06T04:57:30.048Z,8.27
2023-03-06T05:02:32.130Z,7.75
2023-03-06T05:07:33.804Z,7.95
2023-03-06T05:12:37.287Z,7.85
2023-03-06T05:17:39.232Z,7.57
2023-03-06T05:22:41.779Z,7.97
2023-03-06T05:27:43.859Z,8.25
2023-03-06T05:32:45.621Z,7.95
2023-03-06T05:37:48.080Z,8.75
2023-03-06T05:42:50.300Z,8.05
2023-03-06T05:47:52.301Z,8.77
2023-03-06T05:52:54.281Z,7.85
2023-03-06T05:57:56.119Z,7.70
2023-03-06T06:03:01.214Z,7.90
2023-03-06T06:08:02.943Z,7.88
2023-03-06T06:13:04.745Z,8.35
2023-03-06T06:18:06.535Z,8.38
2023-03-06T06:23:10.995Z,7.82
2023-03-06T06:28:12.698Z,7.63
2023-03-06T06:33:14.374Z,7.32
2023-03-06T06:38:16.453Z,8.05
2023-03-06T06:43:18.259Z,7.65
2023-03-06T06:48:20.091Z,8.30
2023-03-06T06:53:22.129Z,8.30
2023-03-06T06:58:24.247Z,8.45
2023-03-06T07:03:25.948Z,8.27
2023-03-06T07:08:28.137Z,7.75
2023-03-06T07:13:30.117Z,6.95
2023-03-06T07:18:32.174Z,6.57
2023-03-06T07:23:34.259Z,6.63
2023-03-06T07:28:51.287Z,6.68
2023-03-06T07:33:55.130Z,6.85
2023-03-06T07:38:57.030Z,6.75
2023-03-06T07:43:59.064Z,7.57
2023-03-06T07:49:00.964Z,8.23
2023-03-06T07:54:03.002Z,7.40
2023-03-06T07:59:04.889Z,6.78
2023-03-06T08:04:07.269Z,7.22
2023-03-06T08:09:09.235Z,6.32
2023-03-06T08:14:10.962Z,7.03
2023-03-06T08:19:12.818Z,6.18
2023-03-06T08:24:17.860Z,6.15
2023-03-06T08:29:19.680Z,5.35
2023-03-06T08:34:24.431Z,6.22
2023-03-06T08:39:26.207Z,5.43
2023-03-06T08:44:27.968Z,5.97
2023-03-06T08:49:30.220Z,5.43
2023-03-06T08:54:34.366Z,5.38
2023-03-06T08:59:36.761Z,5.95
2023-03-06T09:04:38.614Z,5.53
2023-03-06T09:09:40.337Z,6.32
2023-03-06T09:14:42.170Z,5.72
2023-03-06T09:19:44.169Z,6.30
2023-03-06T09:24:46.062Z,6.35
2023-03-06T09:29:47.802Z,6.82
2023-03-06T09:34:50.518Z,5.82
2023-03-06T09:39:52.399Z,6.30
2023-03-06T09:44:56.906Z,7.22
2023-03-06T09:50:25.173Z,6.97
2023-03-06T09:55:31.335Z,7.05
2023-03-06T10:00:38.582Z,7.00
2023-03-06T10:05:44.736Z,6.95
2023-03-06T10:11:03.791Z,7.10
2023-03-06T10:16:14.578Z,7.53
2023-03-06T10:21:37.911Z,7.82
2023-03-06T10:26:55.097Z,7.20
2023-03-06T10:32:11.463Z,7.75
2023-03-06T10:37:19.675Z,7.60
2023-03-06T10:42:21.369Z,7.57
2023-03-06T10:47:37.054Z,7.60
2023-03-06T10:52:38.812Z,7.82
2023-03-06T10:57:40.550Z,7.47
2023-03-06T11:02:42.393Z,7.63
2023-03-06T11:07:59.572Z,7.70
2023-03-06T11:13:21.006Z,7.85
2023-03-06T11:18:28.599Z,7.22
2023-03-06T11:23:36.527Z,8.07
2023-03-06T11:28:50.457Z,8.15
2023-03-06T11:33:52.294Z,7.30
2023-03-06T11:38:55.253Z,8.05
2023-03-06T11:44:24.900Z,7.15
2023-03-06T11:49:35.113Z,7.97
2023-03-06T11:54:37.018Z,8.27
2023-03-06T11:59:51.340Z,9.10
2023-03-06T12:05:01.200Z,7.60
2023-03-06T12:10:51.545Z,6.72
2023-03-06T12:16:23.065Z,7.53
2023-03-06T12:21:36.748Z,6.57
2023-03-06T12:26:44.510Z,8.38
2023-03-06T12:32:40.077Z,7.45
2023-03-06T12:38:25.349Z,7.37
2023-03-06T12:44:05.148Z,8.32
2023-03-06T12:49:23.053Z,7.95
2023-03-06T12:54:36.540Z,7.45
2023-03-06T12:59:48.088Z,8.48
2023-03-06T13:05:11.203Z,7.40
2023-03-06T13:10:41.962Z,7.93
2023-03-06T13:15:45.920Z,7.57
2023-03-06T13:20:57.609Z,7.93
2023-03-06T13:26:00.545Z,6.70
2023-03-06T13:31:02.312Z,7.47
2023-03-06T13:36:21.254Z,6.93
2023-03-06T13:41:22.992Z,6.13
2023-03-06T13:46:31.103Z,6.93
2023-03-06T13:51:54.884Z,6.93
2023-03-06T13:57:17.913Z,7.07
2023-03-06T14:02:47.686Z,7.40
2023-03-06T14:08:01.634Z,7.53
2023-03-06T14:13:06.031Z,6.68
2023-03-06T14:18:36.969Z,7.22
2023-03-06T14:23:43.625Z,6.68
2023-03-06T14:28:55.103Z,6.60
2023-03-06T14:34:08.168Z,6.63
2023-03-06T14:39:14.670Z,7.53
2023-03-06T14:44:26.501Z,7.30
2023-03-06T14:49:28.239Z,7.20
2023-03-06T14:54:37.034Z,7.90
2023-03-06T14:59:50.790Z,6.90
2023-03-06T15:04:58.575Z,6.15
2023-03-06T15:10:01.191Z,7.05
2023-03-06T15:15:10.408Z,6.82
2023-03-06T15:20:41.669Z,7.28
2023-03-06T15:25:51.872Z,7.78
2023-03-06T15:31:20.616Z,6.88
2023-03-06T15:36:29.620Z,7.20
2023-03-06T15:41:35.695Z,8.00
2023-03-06T15:46:37.621Z,7.80
2023-03-06T15:51:39.456Z,11.13
2023-03-06T15:56:44.468Z,8.27
2023-03-06T16:01:46.587Z,7.88
2023-03-06T16:06:48.873Z,7.07
2023-03-06T16:11:50.567Z,7.55
2023-03-06T16:16:56.782Z,7.60
2023-03-06T16:21:59.289Z,7.32
2023-03-06T16:27:02.084Z,7.75
2023-03-06T16:32:04.965Z,7.43
2023-03-06T16:37:12.060Z,7.40
2023-03-06T16:42:17.054Z,7.80
2023-03-06T16:47:18.961Z,7.97
2023-03-06T16:52:20.841Z,9.30
2023-03-06T16:57:24.244Z,8.65
2023-03-06T17:02:26.783Z,8.13
2023-03-06T17:07:29.706Z,8.85
2023-03-06T17:12:31.575Z,8.63
2023-03-06T17:17:34.003Z,8.07
2023-03-06T17:22:38.932Z,8.23
2023-03-06T17:27:41.243Z,7.93
2023-03-06T17:32:43.369Z,8.35
2023-03-06T17:37:45.155Z,8.05
2023-03-06T17:42:47.475Z,8.38
2023-03-06T17:47:53.284Z,8.00
2023-03-06T17:52:55.616Z,8.02
2023-03-06T17:57:57.921Z,8.75
2023-03-06T18:03:00.397Z,8.05
2023-03-06T18:08:02.962Z,9.05
2023-03-06T18:13:10.204Z,8.43
2023-03-06T18:18:15.468Z,8.98
2023-03-06T18:23:17.867Z,8.38
2023-03-06T18:28:20.098Z,8.45
2023-03-06T18:33:24.536Z,8.40
2023-03-06T18:38:28.058Z,7.75
2023-03-06T18:43:31.424Z,8.25
2023-03-06T18:48:35.789Z,8.32
2023-03-06T18:53:51.043Z,8.60
2023-03-06T18:58:55.022Z,8.85
2023-03-06T19:04:01.890Z,9.45
2023-03-06T19:09:05.209Z,10.52
2023-03-06T19:14:08.307Z,9.00
2023-03-06T19:19:11.715Z,8.95
2023-03-06T19:24:14.888Z,9.02
2023-03-06T19:29:18.659Z,8.50
2023-03-06T19:34:22.851Z,8.40
2023-03-06T19:39:25.592Z,8.30
2023-03-06T19:44:31.281Z,8.45
2023-03-06T19:49:33.988Z,8.43
2023-03-06T19:54:36.902Z,7.70
2023-03-06T19:59:39.523Z,8.05
2023-03-06T20:04:43.269Z,7.78
2023-03-06T20:09:48.499Z,7.13
2023-03-06T20:14:51.364Z,8.23
2023-03-06T20:19:53.917Z,7.68
2023-03-06T20:24:57.023Z,7.70
2023-03-06T20:30:00.027Z,7.72
2023-03-06T20:35:02.736Z,7.68
2023-03-06T20:40:06.473Z,8.10
2023-03-06T20:45:10.195Z,7.68
2023-03-06T20:50:16.918Z,8.00
2023-03-06T21:00:22.449Z,7.85
2023-03-06T21:05:24.669Z,8.18
2023-03-06T21:10:27.083Z,7.88
2023-03-06T21:15:30.080Z,7.75
2023-03-06T21:20:33.702Z,7.85
2023-03-06T21:25:35.961Z,8.10
2023-03-06T21:30:37.636Z,8.27
2023-03-06T21:35:44.327Z,8.18
2023-03-06T21:45:52.636Z,7.70
2023-03-06T21:51:13.962Z,8.05
2023-03-06T21:56:17.642Z,9.73
2023-03-06T22:01:23.886Z,9.50
2023-03-06T22:06:28.535Z,9.95
2023-03-06T22:11:37.077Z,9.07
2023-03-06T22:16:39.078Z,9.75
2023-03-06T22:21:40.875Z,10.35
2023-03-06T22:26:42.597Z,10.27
2023-03-06T22:31:44.459Z,11.25
2023-03-06T22:36:46.364Z,11.35
2023-03-06T22:41:48.561Z,11.38
2023-03-06T22:46:51.823Z,11.38
2023-03-06T22:51:53.498Z,11.25
2023-03-06T22:56:56.418Z,9.75
2023-03-06T23:01:58.205Z,10.43
2023-03-06T23:06:59.860Z,9.65
2023-03-06T23:12:01.821Z,10.70
2023-03-06T23:17:04.007Z,11.38
2023-03-06T23:22:05.754Z,10.50
2023-03-06T23:27:07.708Z,10.65
2023-03-06T23:32:09.540Z,10.05
2023-03-06T23:37:11.394Z,10.50
2023-03-06T23:42:13.140Z,10.02
2023-03-06T23:47:17.247Z,9.60
2023-03-06T23:52:19.162Z,9.80
2023-03-06T23:57:21.224Z,10.20
